createdAt,value
2023-02-25T00:04:19.731Z,100.00
2023-02-25T00:10:22.008Z,100.00
2023-02-25T00:16:25.537Z,100.00
2023-02-25T00:22:28.357Z,100.00
2023-02-25T00:28:30.296Z,100.00
2023-02-25T00:34:32.227Z,100.00
2023-02-25T00:40:38.356Z,100.00
2023-02-25T00:46:40.312Z,100.00
2023-02-25T00:52:44.599Z,100.00
2023-02-25T00:58:48.050Z,100.00
2023-02-25T01:04:50.014Z,100.00
2023-02-25T01:10:53.435Z,100.00
2023-02-25T01:16:57.780Z,100.00
2023-02-25T01:22:59.825Z,100.00
2023-02-25T01:29:05.632Z,100.00
2023-02-25T01:35:08.042Z,100.00
2023-02-25T01:41:10.212Z,99.98
2023-02-25T01:47:21.029Z,99.05
2023-02-25T01:53:35.184Z,99.12
2023-02-25T01:59:39.994Z,99.98
2023-02-25T02:06:18.784Z,100.00
2023-02-25T02:12:20.734Z,100.00
2023-02-25T02:18:23.176Z,100.00
2023-02-25T02:25:14.757Z,100.00
2023-02-25T02:31:53.249Z,100.00
2023-02-25T02:38:14.109Z,98.33
2023-02-25T02:44:35.323Z,97.86
2023-02-25T02:50:46.661Z,96.70
2023-02-25T02:56:52.954Z,96.18
2023-02-25T03:03:07.205Z,96.17
2023-02-25T03:09:30.549Z,96.02
2023-02-25T03:15:33.717Z,96.06
2023-02-25T03:21:43.987Z,94.79
2023-02-25T03:27:52.371Z,95.47
2023-02-25T03:34:09.569Z,94.28
2023-02-25T03:40:15.179Z,94.03
2023-02-25T03:46:20.211Z,93.42
2023-02-25T03:52:24.387Z,92.73
2023-02-25T03:58:26.304Z,92.03
2023-02-25T04:04:28.390Z,90.76
2023-02-25T04:10:30.338Z,89.72
2023-02-25T04:16:32.305Z,88.67
2023-02-25T04:22:34.609Z,90.20
2023-02-25T04:28:36.622Z,91.28
2023-02-25T04:34:38.607Z,90.51
2023-02-25T04:40:40.759Z,90.46
2023-02-25T04:46:43.412Z,89.93
2023-02-25T04:52:45.401Z,89.90
2023-02-25T04:58:47.378Z,89.54
2023-02-25T05:04:49.384Z,90.45
2023-02-25T05:10:52.107Z,91.40
2023-02-25T05:16:54.073Z,91.84
2023-02-25T05:22:55.970Z,93.07
2023-02-25T05:28:58.203Z,92.11
2023-02-25T05:35:00.562Z,92.61
2023-02-25T05:41:03.791Z,90.81
2023-02-25T05:47:07.524Z,91.11
2023-02-25T05:53:09.876Z,91.38
2023-02-25T05:59:12.377Z,91.80
2023-02-25T06:05:14.307Z,91.24
2023-02-25T06:11:30.016Z,88.26
2023-02-25T06:17:31.927Z,89.35
2023-02-25T06:23:39.034Z,88.69
2023-02-25T06:29:41.655Z,87.58
2023-02-25T06:35:43.594Z,86.38
2023-02-25T06:41:45.494Z,86.34
2023-02-25T06:47:47.446Z,85.64
2023-02-25T06:53:51.038Z,85.71
2023-02-25T06:59:53.340Z,85.07
2023-02-25T07:05:55.222Z,83.86
2023-02-25T07:11:57.631Z,84.66
2023-02-25T07:17:59.517Z,85.40
2023-02-25T07:24:01.532Z,83.97
2023-02-25T07:30:05.169Z,84.26
2023-02-25T07:36:07.244Z,84.75
2023-02-25T07:42:09.150Z,84.06
2023-02-25T07:48:11.403Z,83.74
2023-02-25T07:54:14.643Z,83.82
2023-02-25T08:00:17.687Z,82.63
2023-02-25T08:06:20.982Z,80.15
2023-02-25T08:12:23.123Z,78.36
2023-02-25T08:18:25.004Z,77.97
2023-02-25T08:24:27.096Z,75.40
2023-02-25T08:30:29.084Z,75.99
2023-02-25T08:36:31.851Z,74.55
2023-02-25T08:42:33.784Z,74.76
2023-02-25T08:48:37.040Z,72.29
2023-02-25T08:54:39.827Z,73.13
2023-02-25T09:00:42.119Z,71.97
2023-02-25T09:06:47.354Z,71.12
2023-02-25T09:12:49.868Z,70.81
2023-02-25T09:18:51.940Z,70.24
2023-02-25T09:24:54.149Z,68.48
2023-02-25T09:30:58.038Z,69.97
2023-02-25T09:37:03.725Z,68.57
2023-02-25T09:43:29.390Z,69.93
2023-02-25T09:50:02.464Z,68.38
2023-02-25T09:56:07.991Z,67.56
2023-02-25T10:02:21.865Z,69.26
2023-02-25T10:09:03.135Z,67.16
2023-02-25T10:15:52.742Z,64.87
2023-02-25T10:22:24.628Z,64.75
2023-02-25T10:28:28.128Z,64.65
2023-02-25T10:34:32.733Z,65.19
2023-02-25T10:40:34.859Z,64.46
2023-02-25T10:47:00.273Z,67.17
2023-02-25T10:53:19.030Z,67.39
2023-02-25T10:59:39.990Z,70.24
2023-02-25T11:05:44.805Z,71.01
2023-02-25T11:12:19.028Z,73.24
2023-02-25T11:18:29.676Z,75.59
2023-02-25T11:24:36.470Z,80.05
2023-02-25T11:30:40.423Z,83.80
2023-02-25T11:36:42.821Z,86.02
2023-02-25T11:42:59.247Z,88.37
2023-02-25T11:49:18.692Z,86.59
2023-02-25T11:55:45.858Z,86.40
2023-02-25T12:02:27.445Z,85.31
2023-02-25T12:08:36.109Z,85.61
2023-02-25T12:15:00.681Z,83.54
2023-02-25T12:21:43.228Z,79.73
2023-02-25T12:28:12.304Z,77.02
2023-02-25T12:34:46.817Z,76.10
2023-02-25T12:40:54.350Z,75.07
2023-02-25T12:47:44.589Z,63.44
2023-02-25T12:54:24.665Z,69.32
2023-02-25T13:00:57.248Z,69.73
2023-02-25T13:07:53.116Z,69.70
2023-02-25T13:14:29.141Z,70.41
2023-02-25T13:20:56.900Z,73.01
2023-02-25T13:27:20.800Z,75.59
2023-02-25T13:34:00.307Z,79.87
2023-02-25T13:40:21.245Z,84.58
2023-02-25T13:46:45.934Z,86.03
2023-02-25T13:53:25.825Z,85.38
2023-02-25T13:59:55.907Z,84.19
2023-02-25T14:06:21.006Z,79.19
2023-02-25T14:13:02.848Z,83.56
2023-02-25T14:19:41.189Z,82.54
2023-02-25T14:26:18.141Z,82.89
2023-02-25T14:32:43.455Z,85.89
2023-02-25T14:39:27.114Z,86.65
2023-02-25T14:45:46.088Z,84.64
2023-02-25T14:52:40.891Z,82.17
2023-02-25T14:59:39.952Z,83.24
2023-02-25T15:06:27.202Z,82.71
2023-02-25T15:13:16.771Z,78.49
2023-02-25T15:19:34.640Z,78.09
2023-02-25T15:25:44.322Z,76.88
2023-02-25T15:32:29.949Z,73.55
2023-02-25T15:38:51.066Z,72.29
2023-02-25T15:44:53.363Z,71.91
2023-02-25T15:50:55.708Z,71.06
2023-02-25T15:57:01.436Z,71.66
2023-02-25T16:03:23.290Z,71.09
2023-02-25T16:09:27.357Z,72.27
2023-02-25T16:15:37.572Z,69.85
2023-02-25T16:21:46.558Z,68.73
2023-02-25T16:28:23.137Z,68.68
2023-02-25T16:34:53.168Z,67.75
2023-02-25T16:40:55.262Z,70.37
2023-02-25T16:46:57.420Z,72.46
2023-02-25T16:53:00.872Z,78.26
2023-02-25T16:59:14.524Z,77.33
2023-02-25T17:05:37.398Z,78.44
2023-02-25T17:11:39.331Z,78.06
2023-02-25T17:17:42.915Z,79.13
2023-02-25T17:23:45.335Z,80.09
2023-02-25T17:29:48.645Z,79.90
2023-02-25T17:35:53.435Z,81.43
2023-02-25T17:41:55.693Z,82.97
2023-02-25T17:47:57.651Z,83.77
2023-02-25T17:54:08.200Z,84.56
2023-02-25T18:00:25.238Z,84.67
2023-02-25T18:06:44.814Z,85.80
2023-02-25T18:12:48.155Z,85.79
2023-02-25T18:18:52.508Z,85.35
2023-02-25T18:24:59.106Z,79.80
2023-02-25T18:31:01.231Z,81.36
2023-02-25T18:37:03.973Z,81.21
2023-02-25T18:43:06.909Z,82.54
2023-02-25T18:49:08.900Z,82.74
2023-02-25T18:55:20.053Z,83.64
2023-02-25T19:01:26.102Z,83.94
2023-02-25T19:07:33.904Z,81.38
2023-02-25T19:13:40.538Z,78.92
2023-02-25T19:19:46.474Z,77.71
2023-02-25T19:25:56.021Z,77.39
2023-02-25T19:31:58.513Z,79.27
2023-02-25T19:38:01.120Z,80.69
2023-02-25T19:44:03.464Z,81.76
2023-02-25T19:50:06.341Z,81.98
2023-02-25T19:56:08.235Z,82.41
2023-02-25T20:02:12.538Z,81.83
2023-02-25T20:08:14.410Z,82.00
2023-02-25T20:14:17.369Z,81.84
2023-02-25T20:20:19.421Z,81.49
2023-02-25T20:26:24.298Z,80.90
2023-02-25T20:32:26.432Z,81.29
2023-02-25T20:38:38.274Z,80.31
2023-02-25T20:44:41.110Z,80.49
2023-02-25T20:50:43.513Z,80.32
2023-02-25T20:56:47.028Z,79.63
2023-02-25T21:02:48.963Z,79.59
2023-02-25T21:08:51.797Z,79.57
2023-02-25T21:14:53.687Z,80.03
2023-02-25T21:21:07.637Z,79.85
2023-02-25T21:27:09.649Z,79.54
2023-02-25T21:33:12.272Z,79.35
2023-02-25T21:39:14.211Z,78.62
2023-02-25T21:45:16.105Z,77.17
2023-02-25T21:51:22.351Z,76.53
2023-02-25T21:57:24.245Z,74.51
2023-02-25T22:03:26.225Z,74.70
2023-02-25T22:09:28.350Z,73.78
2023-02-25T22:15:30.388Z,74.01
2023-02-25T22:21:35.506Z,74.18
2023-02-25T22:27:37.459Z,75.17
2023-02-25T22:33:40.279Z,77.04
2023-02-25T22:39:42.254Z,79.43
2023-02-25T22:45:44.477Z,80.85
2023-02-25T22:51:48.075Z,82.03
2023-02-25T22:57:49.957Z,82.43
2023-02-25T23:03:55.211Z,81.64
2023-02-25T23:09:57.070Z,81.59
2023-02-25T23:16:02.208Z,81.73
2023-02-25T23:22:04.127Z,81.35
2023-02-25T23:28:08.779Z,81.58
2023-02-25T23:34:14.735Z,82.22
2023-02-25T23:40:17.367Z,82.37
2023-02-25T23:46:19.941Z,82.88
2023-02-25T23:52:21.876Z,83.29
2023-02-25T23:58:23.780Z,83.77
